ENBN

Brønnøysund Airport

Brønnøy, Norway
METAR ENBN 162250Z AUTO 05006KT 9999NDV NCD M04/M09 Q0990
Observed Flight Rules
Jan-16 @ 22:50 UTC (12 minutes ago)
Wind Clouds
50° at 6 knots
  • Clear skies
Temperatures Readings
Current -4°C / 25°F
Dewpoint -9°C / 16°F
Humidity 69%
Altimeter 29.23" Hg
Pressure 989.92 hPa
Elevation 9
METAR ENBN 162250Z AUTO 05006KT 9999NDV NCD M04/M09 Q0990
Observed Flight Rules
Jan-16 @ 22:50 UTC
(12 minutes ago)
Wind
50° at 6 knots
Clouds
  • Clear skies
Temperature Dewpoint
-4°C / 25°F -9°C / 16°F
Humidity Altimeter Pressure
69% 29.23" Hg 989.92 hPa